Terminal Aerodrome Forecast
Issued by NWS

Home | Current Version | Previous Version | Text Only | Print | Product List | Glossary On
Versions: 1 2 3 4 5 6 7 8 9 10 11 12 13 14
819
FTUS45 KFGZ 191133
TAFPRC
TAF
KPRC 191133Z 1912/2012 18020G30KT P6SM SCT025 BKN040
     FM191600 20025G35KT P6SM BKN025 OVC030
      TEMPO 1917/1921 5SM -SHSNRA OVC020
     FM200000 24020G28KT P6SM BKN040
     FM200300 23012KT P6SM SCT050=

USA.gov is the U.S. government's official web portal to all federal, state and local government web resources and services.